sensor_id;sensor_type;location;lat;lon;timestamp;P1;durP1;ratioP1;P2;durP2;ratioP2
64903;SDS011;51401;48.882;12.598;2023-02-20T11:04:12;3.88;;;2.05;;
64903;SDS011;51401;48.882;12.598;2023-02-20T11:09:25;5.00;;;2.65;;
64903;SDS011;51401;48.882;12.598;2023-02-20T11:11:51;4.28;;;2.38;;
64903;SDS011;51401;48.882;12.598;2023-02-20T11:14:23;3.17;;;2.20;;
64903;SDS011;51401;48.882;12.598;2023-02-20T11:16:59;3.72;;;2.35;;
64903;SDS011;51401;48.882;12.598;2023-02-20T11:22:09;5.53;;;2.55;;
64903;SDS011;51401;48.882;12.598;2023-02-20T11:24:36;5.90;;;3.00;;
64903;SDS011;51401;48.882;12.598;2023-02-20T11:32:58;3.78;;;2.40;;
64903;SDS011;51401;48.882;12.598;2023-02-20T11:35:26;5.28;;;2.28;;
64903;SDS011;51401;48.882;12.598;2023-02-20T11:40:44;4.28;;;2.30;;
64903;SDS011;51401;48.882;12.598;2023-02-20T11:45:38;4.00;;;2.27;;
64903;SDS011;51401;48.882;12.598;2023-02-20T11:48:08;5.10;;;2.63;;
64903;SDS011;51401;48.882;12.598;2023-02-20T11:50:47;5.47;;;2.90;;
64903;SDS011;51401;48.882;12.598;2023-02-20T11:53:18;4.18;;;2.50;;
64903;SDS011;51401;48.882;12.598;2023-02-20T11:58:35;3.83;;;2.10;;
64903;SDS011;51401;48.882;12.598;2023-02-20T12:01:01;3.90;;;2.50;;
64903;SDS011;51401;48.882;12.598;2023-02-20T12:03:28;4.07;;;2.67;;
64903;SDS011;51401;48.882;12.598;2023-02-20T12:05:55;3.83;;;2.08;;
64903;SDS011;51401;48.882;12.598;2023-02-20T12:11:13;4.03;;;2.10;;
64903;SDS011;51401;48.882;12.598;2023-02-20T12:13:42;3.85;;;2.00;;
64903;SDS011;51401;48.882;12.598;2023-02-20T12:24:46;5.55;;;2.53;;
64903;SDS011;51401;48.882;12.598;2023-02-20T12:27:28;2.53;;;2.00;;
64903;SDS011;51401;48.882;12.598;2023-02-20T12:30:02;4.07;;;2.47;;
64903;SDS011;51401;48.882;12.598;2023-02-20T12:35:24;2.50;;;2.10;;
64903;SDS011;51401;48.882;12.598;2023-02-20T12:40:54;3.15;;;1.98;;
64903;SDS011;51401;48.882;12.598;2023-02-20T12:47:10;4.15;;;1.75;;
64903;SDS011;51401;48.882;12.598;2023-02-20T13:00:50;2.70;;;1.63;;
64903;SDS011;51401;48.882;12.598;2023-02-20T13:03:19;4.13;;;1.33;;
64903;SDS011;51401;48.882;12.598;2023-02-20T13:05:47;2.42;;;1.45;;
64903;SDS011;51401;48.882;12.598;2023-02-20T13:08:16;2.70;;;1.30;;
64903;SDS011;51401;48.882;12.598;2023-02-20T13:10:55;2.80;;;1.40;;
64903;SDS011;51401;48.882;12.598;2023-02-20T13:13:22;4.22;;;2.53;;
64903;SDS011;51401;48.882;12.598;2023-02-20T13:16:09;3.25;;;1.80;;
64903;SDS011;51401;48.882;12.598;2023-02-20T13:18:50;2.35;;;1.40;;
64903;SDS011;51401;48.882;12.598;2023-02-20T13:21:24;2.22;;;1.33;;
64903;SDS011;51401;48.882;12.598;2023-02-20T13:23:53;2.15;;;1.20;;
64903;SDS011;51401;48.882;12.598;2023-02-20T13:26:51;1.58;;;0.90;;
64903;SDS011;51401;48.882;12.598;2023-02-20T13:29:19;1.80;;;1.20;;
64903;SDS011;51401;48.882;12.598;2023-02-20T13:31:51;2.15;;;1.30;;
64903;SDS011;51401;48.882;12.598;2023-02-20T13:36:48;3.13;;;1.77;;
64903;SDS011;51401;48.882;12.598;2023-02-20T13:44:50;3.50;;;1.58;;
64903;SDS011;51401;48.882;12.598;2023-02-20T13:54:58;2.67;;;1.65;;
64903;SDS011;51401;48.882;12.598;2023-02-20T13:57:26;2.83;;;1.63;;
64903;SDS011;51401;48.882;12.598;2023-02-20T13:59:57;1.75;;;1.27;;
64903;SDS011;51401;48.882;12.598;2023-02-20T14:02:24;2.80;;;1.48;;
64903;SDS011;51401;48.882;12.598;2023-02-20T14:04:59;7.50;;;2.17;;
64903;SDS011;51401;48.882;12.598;2023-02-20T14:07:36;2.22;;;1.55;;
64903;SDS011;51401;48.882;12.598;2023-02-20T14:12:42;3.97;;;1.38;;
64903;SDS011;51401;48.882;12.598;2023-02-20T14:15:08;4.18;;;1.88;;
64903;SDS011;51401;48.882;12.598;2023-02-20T14:17:34;2.53;;;1.58;;
64903;SDS011;51401;48.882;12.598;2023-02-20T14:20:03;2.53;;;1.33;;
64903;SDS011;51401;48.882;12.598;2023-02-20T14:22:33;2.15;;;1.40;;
64903;SDS011;51401;48.882;12.598;2023-02-20T14:27:37;3.53;;;2.25;;
64903;SDS011;51401;48.882;12.598;2023-02-20T14:30:20;1.92;;;1.33;;
64903;SDS011;51401;48.882;12.598;2023-02-20T14:32:51;2.05;;;1.35;;
64903;SDS011;51401;48.882;12.598;2023-02-20T14:38:03;1.77;;;1.20;;
64903;SDS011;51401;48.882;12.598;2023-02-20T14:40:40;2.95;;;1.48;;
64903;SDS011;51401;48.882;12.598;2023-02-20T14:43:17;1.48;;;1.10;;
64903;SDS011;51401;48.882;12.598;2023-02-20T14:45:45;3.22;;;1.40;;
64903;SDS011;51401;48.882;12.598;2023-02-20T14:48:26;3.30;;;2.45;;
64903;SDS011;51401;48.882;12.598;2023-02-20T14:53:28;2.83;;;1.38;;
64903;SDS011;51401;48.882;12.598;2023-02-20T14:55:53;2.88;;;1.30;;
64903;SDS011;51401;48.882;12.598;2023-02-20T14:58:19;1.65;;;1.20;;
64903;SDS011;51401;48.882;12.598;2023-02-20T15:00:47;2.30;;;1.20;;
64903;SDS011;51401;48.882;12.598;2023-02-20T15:03:20;3.13;;;1.88;;
64903;SDS011;51401;48.882;12.598;2023-02-20T15:05:48;2.88;;;2.03;;
64903;SDS011;51401;48.882;12.598;2023-02-20T15:10:42;2.85;;;1.25;;
64903;SDS011;51401;48.882;12.598;2023-02-20T15:13:12;2.17;;;1.10;;
64903;SDS011;51401;48.882;12.598;2023-02-20T15:15:40;2.50;;;1.23;;
64903;SDS011;51401;48.882;12.598;2023-02-20T15:18:09;2.47;;;1.20;;
64903;SDS011;51401;48.882;12.598;2023-02-20T15:20:41;1.80;;;1.00;;
64903;SDS011;51401;48.882;12.598;2023-02-20T15:25:48;1.45;;;1.00;;
64903;SDS011;51401;48.882;12.598;2023-02-20T15:33:25;1.83;;;1.25;;
64903;SDS011;51401;48.882;12.598;2023-02-20T15:35:51;2.17;;;0.90;;
64903;SDS011;51401;48.882;12.598;2023-02-20T15:38:16;2.67;;;1.20;;
64903;SDS011;51401;48.882;12.598;2023-02-20T15:40:42;2.03;;;1.27;;
64903;SDS011;51401;48.882;12.598;2023-02-20T15:43:10;1.95;;;1.20;;
64903;SDS011;51401;48.882;12.598;2023-02-20T15:45:38;5.25;;;1.75;;
64903;SDS011;51401;48.882;12.598;2023-02-20T15:48:04;3.25;;;2.00;;
64903;SDS011;51401;48.882;12.598;2023-02-20T15:50:31;2.42;;;1.33;;
64903;SDS011;51401;48.882;12.598;2023-02-20T15:52:57;4.43;;;1.38;;
64903;SDS011;51401;48.882;12.598;2023-02-20T15:55:25;2.35;;;1.20;;
64903;SDS011;51401;48.882;12.598;2023-02-20T15:57:53;2.50;;;1.38;;
64903;SDS011;51401;48.882;12.598;2023-02-20T16:00:28;2.22;;;1.23;;
64903;SDS011;51401;48.882;12.598;2023-02-20T16:02:57;3.08;;;1.33;;
64903;SDS011;51401;48.882;12.598;2023-02-20T16:05:24;3.80;;;1.40;;
64903;SDS011;51401;48.882;12.598;2023-02-20T16:07:49;3.05;;;1.33;;
64903;SDS011;51401;48.882;12.598;2023-02-20T16:10:17;3.55;;;1.50;;
64903;SDS011;51401;48.882;12.598;2023-02-20T16:12:44;4.60;;;1.30;;
64903;SDS011;51401;48.882;12.598;2023-02-20T16:15:14;3.00;;;1.48;;
64903;SDS011;51401;48.882;12.598;2023-02-20T16:17:41;3.72;;;1.88;;
64903;SDS011;51401;48.882;12.598;2023-02-20T16:20:12;2.17;;;1.50;;
64903;SDS011;51401;48.882;12.598;2023-02-20T16:22:45;1.92;;;1.60;;
64903;SDS011;51401;48.882;12.598;2023-02-20T16:25:13;4.72;;;2.30;;
64903;SDS011;51401;48.882;12.598;2023-02-20T16:27:40;3.63;;;2.67;;
64903;SDS011;51401;48.882;12.598;2023-02-20T16:30:06;4.07;;;2.10;;
64903;SDS011;51401;48.882;12.598;2023-02-20T16:32:32;3.97;;;2.55;;
64903;SDS011;51401;48.882;12.598;2023-02-20T16:34:58;6.10;;;4.30;;
64903;SDS011;51401;48.882;12.598;2023-02-20T16:37:24;5.13;;;2.35;;
64903;SDS011;51401;48.882;12.598;2023-02-20T16:39:50;5.88;;;3.22;;
64903;SDS011;51401;48.882;12.598;2023-02-20T16:44:57;3.13;;;2.80;;
64903;SDS011;51401;48.882;12.598;2023-02-20T16:47:23;3.30;;;3.00;;
64903;SDS011;51401;48.882;12.598;2023-02-20T16:49:52;4.20;;;3.25;;
64903;SDS011;51401;48.882;12.598;2023-02-20T16:52:22;5.40;;;3.55;;
64903;SDS011;51401;48.882;12.598;2023-02-20T16:54:53;4.38;;;3.72;;
64903;SDS011;51401;48.882;12.598;2023-02-20T16:57:19;3.80;;;2.97;;
64903;SDS011;51401;48.882;12.598;2023-02-20T16:59:47;4.53;;;2.90;;
64903;SDS011;51401;48.882;12.598;2023-02-20T17:02:17;19.35;;;5.90;;
64903;SDS011;51401;48.882;12.598;2023-02-20T17:04:45;5.95;;;3.97;;
64903;SDS011;51401;48.882;12.598;2023-02-20T17:07:11;6.15;;;4.00;;
64903;SDS011;51401;48.882;12.598;2023-02-20T17:09:37;5.07;;;4.45;;
64903;SDS011;51401;48.882;12.598;2023-02-20T17:12:03;7.53;;;4.93;;
64903;SDS011;51401;48.882;12.598;2023-02-20T17:14:28;6.25;;;5.50;;
64903;SDS011;51401;48.882;12.598;2023-02-20T17:16:54;7.63;;;5.20;;
64903;SDS011;51401;48.882;12.598;2023-02-20T17:19:19;9.13;;;6.50;;
64903;SDS011;51401;48.882;12.598;2023-02-20T17:21:48;12.48;;;7.97;;
64903;SDS011;51401;48.882;12.598;2023-02-20T17:24:14;11.43;;;7.50;;
64903;SDS011;51401;48.882;12.598;2023-02-20T17:26:40;12.38;;;8.70;;
64903;SDS011;51401;48.882;12.598;2023-02-20T17:29:06;11.95;;;7.75;;
64903;SDS011;51401;48.882;12.598;2023-02-20T17:31:31;10.10;;;6.60;;
64903;SDS011;51401;48.882;12.598;2023-02-20T17:33:56;10.13;;;6.20;;
64903;SDS011;51401;48.882;12.598;2023-02-20T17:36:22;10.95;;;7.18;;
64903;SDS011;51401;48.882;12.598;2023-02-20T17:38:47;11.45;;;8.13;;
64903;SDS011;51401;48.882;12.598;2023-02-20T17:41:14;12.95;;;8.82;;
64903;SDS011;51401;48.882;12.598;2023-02-20T17:43:40;12.98;;;9.30;;
64903;SDS011;51401;48.882;12.598;2023-02-20T17:46:05;13.23;;;9.38;;
64903;SDS011;51401;48.882;12.598;2023-02-20T17:48:31;10.75;;;8.25;;
64903;SDS011;51401;48.882;12.598;2023-02-20T17:50:56;11.77;;;8.40;;
64903;SDS011;51401;48.882;12.598;2023-02-20T17:53:21;9.27;;;6.50;;
64903;SDS011;51401;48.882;12.598;2023-02-20T17:55:47;10.60;;;7.97;;
64903;SDS011;51401;48.882;12.598;2023-02-20T17:58:12;9.82;;;7.97;;
64903;SDS011;51401;48.882;12.598;2023-02-20T18:00:37;9.98;;;7.35;;
64903;SDS011;51401;48.882;12.598;2023-02-20T18:03:03;11.90;;;8.25;;
64903;SDS011;51401;48.882;12.598;2023-02-20T18:05:28;9.75;;;6.43;;
64903;SDS011;51401;48.882;12.598;2023-02-20T18:07:53;8.68;;;6.13;;
64903;SDS011;51401;48.882;12.598;2023-02-20T18:10:19;10.23;;;6.82;;
64903;SDS011;51401;48.882;12.598;2023-02-20T18:12:44;10.70;;;7.20;;
64903;SDS011;51401;48.882;12.598;2023-02-20T18:15:26;9.38;;;7.00;;
64903;SDS011;51401;48.882;12.598;2023-02-20T18:17:54;7.85;;;6.57;;
64903;SDS011;51401;48.882;12.598;2023-02-20T18:20:20;10.15;;;6.78;;
64903;SDS011;51401;48.882;12.598;2023-02-20T18:22:45;9.45;;;7.68;;
64903;SDS011;51401;48.882;12.598;2023-02-20T18:25:10;11.07;;;8.65;;
64903;SDS011;51401;48.882;12.598;2023-02-20T18:27:35;12.70;;;9.02;;
64903;SDS011;51401;48.882;12.598;2023-02-20T18:30:01;15.70;;;10.43;;
64903;SDS011;51401;48.882;12.598;2023-02-20T18:32:26;17.65;;;12.77;;
64903;SDS011;51401;48.882;12.598;2023-02-20T18:34:51;21.45;;;13.60;;
64903;SDS011;51401;48.882;12.598;2023-02-20T18:37:17;20.23;;;13.35;;
64903;SDS011;51401;48.882;12.598;2023-02-20T18:39:42;20.83;;;14.27;;
64903;SDS011;51401;48.882;12.598;2023-02-20T18:42:08;21.85;;;13.93;;
64903;SDS011;51401;48.882;12.598;2023-02-20T18:44:33;20.52;;;12.57;;
64903;SDS011;51401;48.882;12.598;2023-02-20T18:46:59;17.40;;;11.38;;
64903;SDS011;51401;48.882;12.598;2023-02-20T18:49:24;16.70;;;10.75;;
64903;SDS011;51401;48.882;12.598;2023-02-20T18:51:49;14.27;;;11.05;;
64903;SDS011;51401;48.882;12.598;2023-02-20T18:54:19;13.50;;;8.65;;
64903;SDS011;51401;48.882;12.598;2023-02-20T18:56:48;12.48;;;8.57;;
64903;SDS011;51401;48.882;12.598;2023-02-20T18:59:15;13.48;;;8.63;;
64903;SDS011;51401;48.882;12.598;2023-02-20T19:01:41;14.25;;;8.02;;
64903;SDS011;51401;48.882;12.598;2023-02-20T19:04:07;12.60;;;8.27;;
64903;SDS011;51401;48.882;12.598;2023-02-20T19:06:34;9.70;;;7.07;;
64903;SDS011;51401;48.882;12.598;2023-02-20T19:09:14;12.15;;;8.70;;
64903;SDS011;51401;48.882;12.598;2023-02-20T19:11:41;12.88;;;9.57;;
64903;SDS011;51401;48.882;12.598;2023-02-20T19:14:11;15.48;;;10.57;;
64903;SDS011;51401;48.882;12.598;2023-02-20T19:16:37;13.27;;;9.57;;
64903;SDS011;51401;48.882;12.598;2023-02-20T19:19:02;13.77;;;8.90;;
64903;SDS011;51401;48.882;12.598;2023-02-20T19:21:27;11.93;;;9.02;;
64903;SDS011;51401;48.882;12.598;2023-02-20T19:23:52;10.38;;;7.78;;
64903;SDS011;51401;48.882;12.598;2023-02-20T19:26:18;10.68;;;8.15;;
64903;SDS011;51401;48.882;12.598;2023-02-20T19:28:43;13.93;;;8.73;;
64903;SDS011;51401;48.882;12.598;2023-02-20T19:31:09;13.75;;;8.45;;
64903;SDS011;51401;48.882;12.598;2023-02-20T19:33:35;14.95;;;11.70;;
64903;SDS011;51401;48.882;12.598;2023-02-20T19:36:01;12.48;;;9.50;;
64903;SDS011;51401;48.882;12.598;2023-02-20T19:38:26;12.93;;;8.52;;
64903;SDS011;51401;48.882;12.598;2023-02-20T19:40:52;13.15;;;9.07;;
64903;SDS011;51401;48.882;12.598;2023-02-20T19:43:17;14.90;;;9.02;;
64903;SDS011;51401;48.882;12.598;2023-02-20T19:45:43;13.52;;;9.88;;
64903;SDS011;51401;48.882;12.598;2023-02-20T19:48:08;12.65;;;9.88;;
64903;SDS011;51401;48.882;12.598;2023-02-20T19:50:33;11.85;;;8.35;;
64903;SDS011;51401;48.882;12.598;2023-02-20T19:53:00;11.85;;;8.48;;
64903;SDS011;51401;48.882;12.598;2023-02-20T19:55:25;10.77;;;7.40;;
64903;SDS011;51401;48.882;12.598;2023-02-20T19:57:51;12.20;;;8.95;;
64903;SDS011;51401;48.882;12.598;2023-02-20T20:00:17;16.00;;;10.98;;
64903;SDS011;51401;48.882;12.598;2023-02-20T20:02:43;14.82;;;12.07;;
64903;SDS011;51401;48.882;12.598;2023-02-20T20:05:10;14.55;;;10.85;;
64903;SDS011;51401;48.882;12.598;2023-02-20T20:07:35;19.02;;;13.00;;
64903;SDS011;51401;48.882;12.598;2023-02-20T20:10:00;15.95;;;12.63;;
64903;SDS011;51401;48.882;12.598;2023-02-20T20:12:26;21.70;;;15.95;;
64903;SDS011;51401;48.882;12.598;2023-02-20T20:15:10;18.52;;;15.05;;
64903;SDS011;51401;48.882;12.598;2023-02-20T20:17:35;20.13;;;14.38;;
64903;SDS011;51401;48.882;12.598;2023-02-20T20:20:01;18.02;;;13.93;;
64903;SDS011;51401;48.882;12.598;2023-02-20T20:22:27;17.27;;;13.85;;
64903;SDS011;51401;48.882;12.598;2023-02-20T20:24:53;17.73;;;12.27;;
64903;SDS011;51401;48.882;12.598;2023-02-20T20:27:18;17.05;;;13.07;;
64903;SDS011;51401;48.882;12.598;2023-02-20T20:29:45;21.40;;;14.20;;
64903;SDS011;51401;48.882;12.598;2023-02-20T20:32:12;20.92;;;13.18;;
64903;SDS011;51401;48.882;12.598;2023-02-20T20:34:40;19.67;;;14.60;;
64903;SDS011;51401;48.882;12.598;2023-02-20T20:37:10;29.35;;;16.98;;
64903;SDS011;51401;48.882;12.598;2023-02-20T20:39:35;32.55;;;19.73;;
64903;SDS011;51401;48.882;12.598;2023-02-20T20:42:01;25.25;;;16.75;;
64903;SDS011;51401;48.882;12.598;2023-02-20T20:44:26;21.25;;;14.75;;
64903;SDS011;51401;48.882;12.598;2023-02-20T20:46:51;27.15;;;16.92;;
64903;SDS011;51401;48.882;12.598;2023-02-20T20:49:17;27.48;;;16.38;;
64903;SDS011;51401;48.882;12.598;2023-02-20T20:51:42;26.95;;;15.32;;
64903;SDS011;51401;48.882;12.598;2023-02-20T20:54:09;24.83;;;16.30;;
64903;SDS011;51401;48.882;12.598;2023-02-20T20:56:35;20.95;;;14.77;;
64903;SDS011;51401;48.882;12.598;2023-02-20T20:59:00;23.08;;;15.30;;
64903;SDS011;51401;48.882;12.598;2023-02-20T21:01:25;30.85;;;19.17;;
64903;SDS011;51401;48.882;12.598;2023-02-20T21:03:51;26.08;;;18.88;;
64903;SDS011;51401;48.882;12.598;2023-02-20T21:06:16;32.92;;;20.02;;
64903;SDS011;51401;48.882;12.598;2023-02-20T21:08:41;31.65;;;18.77;;
64903;SDS011;51401;48.882;12.598;2023-02-20T21:11:06;29.80;;;19.88;;
64903;SDS011;51401;48.882;12.598;2023-02-20T21:13:32;27.67;;;17.73;;
64903;SDS011;51401;48.882;12.598;2023-02-20T21:15:57;28.73;;;18.45;;
64903;SDS011;51401;48.882;12.598;2023-02-20T21:18:22;28.10;;;17.67;;
64903;SDS011;51401;48.882;12.598;2023-02-20T21:20:48;24.40;;;16.45;;
64903;SDS011;51401;48.882;12.598;2023-02-20T21:23:13;25.13;;;15.35;;
64903;SDS011;51401;48.882;12.598;2023-02-20T21:25:38;21.58;;;14.70;;
64903;SDS011;51401;48.882;12.598;2023-02-20T21:28:05;21.92;;;14.95;;
64903;SDS011;51401;48.882;12.598;2023-02-20T21:30:31;23.70;;;15.48;;
64903;SDS011;51401;48.882;12.598;2023-02-20T21:32:56;22.25;;;14.95;;
64903;SDS011;51401;48.882;12.598;2023-02-20T21:35:22;20.90;;;14.10;;
64903;SDS011;51401;48.882;12.598;2023-02-20T21:37:49;20.55;;;13.25;;
64903;SDS011;51401;48.882;12.598;2023-02-20T21:40:15;20.05;;;12.90;;
64903;SDS011;51401;48.882;12.598;2023-02-20T21:42:41;18.95;;;13.95;;
64903;SDS011;51401;48.882;12.598;2023-02-20T21:45:25;22.23;;;14.23;;
64903;SDS011;51401;48.882;12.598;2023-02-20T21:47:50;17.60;;;13.30;;
64903;SDS011;51401;48.882;12.598;2023-02-20T21:50:16;19.13;;;12.50;;
64903;SDS011;51401;48.882;12.598;2023-02-20T21:52:43;21.75;;;13.10;;
64903;SDS011;51401;48.882;12.598;2023-02-20T21:55:10;19.17;;;13.55;;
64903;SDS011;51401;48.882;12.598;2023-02-20T21:57:37;20.88;;;13.82;;
64903;SDS011;51401;48.882;12.598;2023-02-20T22:00:04;23.55;;;15.20;;
64903;SDS011;51401;48.882;12.598;2023-02-20T22:02:30;24.45;;;13.93;;
64903;SDS011;51401;48.882;12.598;2023-02-20T22:04:56;20.17;;;13.43;;
64903;SDS011;51401;48.882;12.598;2023-02-20T22:07:21;18.60;;;12.40;;
64903;SDS011;51401;48.882;12.598;2023-02-20T22:10:05;18.90;;;12.30;;
64903;SDS011;51401;48.882;12.598;2023-02-20T22:12:49;19.40;;;12.50;;
64903;SDS011;51401;48.882;12.598;2023-02-20T22:15:33;18.10;;;11.90;;
64903;SDS011;51401;48.882;12.598;2023-02-20T22:18:16;17.30;;;12.00;;
64903;SDS011;51401;48.882;12.598;2023-02-20T22:21:01;17.77;;;11.63;;
64903;SDS011;51401;48.882;12.598;2023-02-20T22:23:45;18.85;;;11.93;;
64903;SDS011;51401;48.882;12.598;2023-02-20T22:26:29;17.40;;;11.32;;
64903;SDS011;51401;48.882;12.598;2023-02-20T22:29:12;13.57;;;10.45;;
64903;SDS011;51401;48.882;12.598;2023-02-20T22:31:56;17.02;;;10.80;;
64903;SDS011;51401;48.882;12.598;2023-02-20T22:34:40;15.35;;;10.30;;
64903;SDS011;51401;48.882;12.598;2023-02-20T22:37:24;17.08;;;11.27;;
64903;SDS011;51401;48.882;12.598;2023-02-20T22:40:08;20.45;;;11.90;;
64903;SDS011;51401;48.882;12.598;2023-02-20T22:42:53;15.20;;;10.63;;
64903;SDS011;51401;48.882;12.598;2023-02-20T22:45:37;19.45;;;12.40;;
64903;SDS011;51401;48.882;12.598;2023-02-20T22:48:21;18.38;;;11.45;;
64903;SDS011;51401;48.882;12.598;2023-02-20T22:51:06;15.52;;;11.55;;
64903;SDS011;51401;48.882;12.598;2023-02-20T22:53:50;22.60;;;11.88;;
64903;SDS011;51401;48.882;12.598;2023-02-20T22:56:34;18.38;;;12.00;;
64903;SDS011;51401;48.882;12.598;2023-02-20T22:59:18;19.27;;;11.75;;
64903;SDS011;51401;48.882;12.598;2023-02-20T23:02:02;16.75;;;10.60;;
64903;SDS011;51401;48.882;12.598;2023-02-20T23:04:46;22.35;;;11.65;;
64903;SDS011;51401;48.882;12.598;2023-02-20T23:07:30;12.95;;;9.98;;
64903;SDS011;51401;48.882;12.598;2023-02-20T23:10:14;17.10;;;11.65;;
64903;SDS011;51401;48.882;12.598;2023-02-20T23:12:59;15.43;;;11.07;;
64903;SDS011;51401;48.882;12.598;2023-02-20T23:15:43;19.02;;;11.27;;
64903;SDS011;51401;48.882;12.598;2023-02-20T23:18:27;15.40;;;10.52;;
64903;SDS011;51401;48.882;12.598;2023-02-20T23:21:11;16.50;;;10.95;;
64903;SDS011;51401;48.882;12.598;2023-02-20T23:23:55;16.50;;;11.27;;
64903;SDS011;51401;48.882;12.598;2023-02-20T23:26:39;15.20;;;10.23;;
64903;SDS011;51401;48.882;12.598;2023-02-20T23:29:22;14.05;;;8.77;;
64903;SDS011;51401;48.882;12.598;2023-02-20T23:32:07;15.00;;;9.27;;
64903;SDS011;51401;48.882;12.598;2023-02-20T23:34:50;16.33;;;9.30;;
64903;SDS011;51401;48.882;12.598;2023-02-20T23:37:35;12.65;;;9.65;;
64903;SDS011;51401;48.882;12.598;2023-02-20T23:40:18;11.88;;;8.80;;
64903;SDS011;51401;48.882;12.598;2023-02-20T23:43:06;13.98;;;9.25;;
64903;SDS011;51401;48.882;12.598;2023-02-20T23:45:50;11.40;;;8.27;;
64903;SDS011;51401;48.882;12.598;2023-02-20T23:48:34;12.38;;;7.88;;
64903;SDS011;51401;48.882;12.598;2023-02-20T23:51:18;10.25;;;7.20;;
64903;SDS011;51401;48.882;12.598;2023-02-20T23:54:02;9.80;;;6.47;;
64903;SDS011;51401;48.882;12.598;2023-02-20T23:56:46;8.48;;;6.10;;
64903;SDS011;51401;48.882;12.598;2023-02-20T23:59:30;10.00;;;5.85;;
